sensor_id;sensor_type;location;lat;lon;timestamp;temperature;humidity
8188;DHT22;4135;49.184;9.722;2023-03-03T00:02:15;21.50;43.30
8188;DHT22;4135;49.184;9.722;2023-03-03T00:04:44;21.50;43.30
8188;DHT22;4135;49.184;9.722;2023-03-03T00:07:14;21.50;43.30
8188;DHT22;4135;49.184;9.722;2023-03-03T00:09:50;21.50;43.30
8188;DHT22;4135;49.184;9.722;2023-03-03T00:12:27;21.50;43.30
8188;DHT22;4135;49.184;9.722;2023-03-03T00:14:57;21.50;43.30
8188;DHT22;4135;49.184;9.722;2023-03-03T00:17:28;21.50;43.30
8188;DHT22;4135;49.184;9.722;2023-03-03T00:20:01;21.50;43.30
8188;DHT22;4135;49.184;9.722;2023-03-03T00:22:50;21.40;43.30
8188;DHT22;4135;49.184;9.722;2023-03-03T00:25:28;21.40;43.30
8188;DHT22;4135;49.184;9.722;2023-03-03T00:28:12;21.50;43.30
8188;DHT22;4135;49.184;9.722;2023-03-03T00:30:44;21.30;43.20
8188;DHT22;4135;49.184;9.722;2023-03-03T00:33:30;21.50;43.30
8188;DHT22;4135;49.184;9.722;2023-03-03T00:36:25;21.40;43.30
8188;DHT22;4135;49.184;9.722;2023-03-03T00:39:10;21.40;43.20
8188;DHT22;4135;49.184;9.722;2023-03-03T00:41:42;21.40;43.20
8188;DHT22;4135;49.184;9.722;2023-03-03T00:47:27;21.40;43.20
8188;DHT22;4135;49.184;9.722;2023-03-03T00:52:43;21.40;43.20
8188;DHT22;4135;49.184;9.722;2023-03-03T00:55:13;21.40;43.20
8188;DHT22;4135;49.184;9.722;2023-03-03T00:57:43;21.40;43.30
8188;DHT22;4135;49.184;9.722;2023-03-03T01:00:13;21.40;43.20
8188;DHT22;4135;49.184;9.722;2023-03-03T01:02:43;21.40;43.20
8188;DHT22;4135;49.184;9.722;2023-03-03T01:05:16;21.40;43.20
8188;DHT22;4135;49.184;9.722;2023-03-03T01:07:46;21.40;43.20
8188;DHT22;4135;49.184;9.722;2023-03-03T01:10:16;21.40;43.20
8188;DHT22;4135;49.184;9.722;2023-03-03T01:12:45;21.40;43.20
8188;DHT22;4135;49.184;9.722;2023-03-03T01:15:15;21.40;43.20
8188;DHT22;4135;49.184;9.722;2023-03-03T01:17:45;21.40;43.30
8188;DHT22;4135;49.184;9.722;2023-03-03T01:20:15;21.40;43.20
8188;DHT22;4135;49.184;9.722;2023-03-03T01:22:44;21.30;43.10
8188;DHT22;4135;49.184;9.722;2023-03-03T01:25:14;21.40;43.30
8188;DHT22;4135;49.184;9.722;2023-03-03T01:27:44;21.30;43.10
8188;DHT22;4135;49.184;9.722;2023-03-03T01:30:14;21.30;43.20
8188;DHT22;4135;49.184;9.722;2023-03-03T01:32:43;21.30;43.10
8188;DHT22;4135;49.184;9.722;2023-03-03T01:35:13;21.30;43.10
8188;DHT22;4135;49.184;9.722;2023-03-03T01:37:43;21.50;43.90
8188;DHT22;4135;49.184;9.722;2023-03-03T01:40:17;21.30;43.20
8188;DHT22;4135;49.184;9.722;2023-03-03T01:42:47;21.30;43.10
8188;DHT22;4135;49.184;9.722;2023-03-03T01:48:12;21.30;43.10
8188;DHT22;4135;49.184;9.722;2023-03-03T01:50:56;21.30;43.10
8188;DHT22;4135;49.184;9.722;2023-03-03T01:53:44;21.30;43.10
8188;DHT22;4135;49.184;9.722;2023-03-03T01:56:14;21.30;43.10
8188;DHT22;4135;49.184;9.722;2023-03-03T01:58:51;21.30;43.10
8188;DHT22;4135;49.184;9.722;2023-03-03T02:01:24;21.30;43.10
8188;DHT22;4135;49.184;9.722;2023-03-03T02:03:54;21.10;43.00
8188;DHT22;4135;49.184;9.722;2023-03-03T02:06:29;21.30;43.10
8188;DHT22;4135;49.184;9.722;2023-03-03T02:11:50;21.30;43.10
8188;DHT22;4135;49.184;9.722;2023-03-03T02:14:20;21.20;43.10
8188;DHT22;4135;49.184;9.722;2023-03-03T02:16:50;21.20;43.10
8188;DHT22;4135;49.184;9.722;2023-03-03T02:19:32;21.30;43.10
8188;DHT22;4135;49.184;9.722;2023-03-03T02:22:03;21.20;43.10
8188;DHT22;4135;49.184;9.722;2023-03-03T02:27:07;21.20;43.10
8188;DHT22;4135;49.184;9.722;2023-03-03T02:29:37;21.30;43.10
8188;DHT22;4135;49.184;9.722;2023-03-03T02:32:06;21.20;43.10
8188;DHT22;4135;49.184;9.722;2023-03-03T02:34:50;21.20;43.10
8188;DHT22;4135;49.184;9.722;2023-03-03T02:37:20;21.20;43.10
8188;DHT22;4135;49.184;9.722;2023-03-03T02:39:50;21.20;43.10
8188;DHT22;4135;49.184;9.722;2023-03-03T02:42:26;21.20;43.10
8188;DHT22;4135;49.184;9.722;2023-03-03T02:44:57;21.20;43.10
8188;DHT22;4135;49.184;9.722;2023-03-03T02:47:26;21.20;43.10
8188;DHT22;4135;49.184;9.722;2023-03-03T02:49:56;21.20;43.10
8188;DHT22;4135;49.184;9.722;2023-03-03T02:52:25;21.20;43.10
8188;DHT22;4135;49.184;9.722;2023-03-03T02:54:55;21.20;43.20
8188;DHT22;4135;49.184;9.722;2023-03-03T02:57:24;21.20;43.10
8188;DHT22;4135;49.184;9.722;2023-03-03T02:59:54;21.20;43.20
8188;DHT22;4135;49.184;9.722;2023-03-03T03:02:23;21.20;43.10
8188;DHT22;4135;49.184;9.722;2023-03-03T03:04:53;21.20;43.20
8188;DHT22;4135;49.184;9.722;2023-03-03T03:07:22;21.20;43.20
8188;DHT22;4135;49.184;9.722;2023-03-03T03:09:52;21.20;43.20
8188;DHT22;4135;49.184;9.722;2023-03-03T03:12:21;21.20;43.20
8188;DHT22;4135;49.184;9.722;2023-03-03T03:14:51;21.20;43.20
8188;DHT22;4135;49.184;9.722;2023-03-03T03:17:20;21.10;43.10
8188;DHT22;4135;49.184;9.722;2023-03-03T03:19:50;21.20;43.20
8188;DHT22;4135;49.184;9.722;2023-03-03T03:22:19;21.20;43.20
8188;DHT22;4135;49.184;9.722;2023-03-03T03:24:49;21.10;43.10
8188;DHT22;4135;49.184;9.722;2023-03-03T03:27:18;21.10;43.10
8188;DHT22;4135;49.184;9.722;2023-03-03T03:29:48;21.20;43.20
8188;DHT22;4135;49.184;9.722;2023-03-03T03:32:17;21.10;43.10
8188;DHT22;4135;49.184;9.722;2023-03-03T03:34:47;21.10;43.10
8188;DHT22;4135;49.184;9.722;2023-03-03T03:37:16;21.20;43.20
8188;DHT22;4135;49.184;9.722;2023-03-03T03:39:46;21.10;43.10
8188;DHT22;4135;49.184;9.722;2023-03-03T03:42:15;21.10;43.10
8188;DHT22;4135;49.184;9.722;2023-03-03T03:44:45;21.10;43.10
8188;DHT22;4135;49.184;9.722;2023-03-03T03:47:15;21.10;43.10
8188;DHT22;4135;49.184;9.722;2023-03-03T03:49:44;21.10;43.10
8188;DHT22;4135;49.184;9.722;2023-03-03T03:52:14;21.10;43.10
8188;DHT22;4135;49.184;9.722;2023-03-03T03:54:43;21.10;43.10
8188;DHT22;4135;49.184;9.722;2023-03-03T03:57:13;20.70;42.80
8188;DHT22;4135;49.184;9.722;2023-03-03T03:59:42;21.00;43.00
8188;DHT22;4135;49.184;9.722;2023-03-03T04:02:12;21.10;43.10
8188;DHT22;4135;49.184;9.722;2023-03-03T04:04:41;21.10;43.10
8188;DHT22;4135;49.184;9.722;2023-03-03T04:07:11;21.10;43.10
8188;DHT22;4135;49.184;9.722;2023-03-03T04:09:41;21.10;43.10
8188;DHT22;4135;49.184;9.722;2023-03-03T04:12:10;21.10;43.10
8188;DHT22;4135;49.184;9.722;2023-03-03T04:14:40;21.10;43.10
8188;DHT22;4135;49.184;9.722;2023-03-03T04:17:22;21.10;43.10
8188;DHT22;4135;49.184;9.722;2023-03-03T04:19:53;21.10;43.10
8188;DHT22;4135;49.184;9.722;2023-03-03T04:22:22;21.10;43.10
8188;DHT22;4135;49.184;9.722;2023-03-03T04:24:52;21.10;43.10
8188;DHT22;4135;49.184;9.722;2023-03-03T04:27:21;21.10;43.10
8188;DHT22;4135;49.184;9.722;2023-03-03T04:29:51;21.10;43.10
8188;DHT22;4135;49.184;9.722;2023-03-03T04:32:20;21.10;43.10
8188;DHT22;4135;49.184;9.722;2023-03-03T04:34:51;21.10;43.10
8188;DHT22;4135;49.184;9.722;2023-03-03T04:37:20;21.00;43.10
8188;DHT22;4135;49.184;9.722;2023-03-03T04:39:50;21.10;43.10
8188;DHT22;4135;49.184;9.722;2023-03-03T04:42:20;21.00;43.10
8188;DHT22;4135;49.184;9.722;2023-03-03T04:44:49;21.00;43.10
8188;DHT22;4135;49.184;9.722;2023-03-03T04:47:19;21.00;43.70
8188;DHT22;4135;49.184;9.722;2023-03-03T04:49:48;21.00;43.10
8188;DHT22;4135;49.184;9.722;2023-03-03T04:52:18;21.00;43.10
8188;DHT22;4135;49.184;9.722;2023-03-03T04:54:47;21.00;43.10
8188;DHT22;4135;49.184;9.722;2023-03-03T04:57:17;21.00;43.10
8188;DHT22;4135;49.184;9.722;2023-03-03T04:59:46;21.00;43.10
8188;DHT22;4135;49.184;9.722;2023-03-03T05:02:16;21.00;43.10
8188;DHT22;4135;49.184;9.722;2023-03-03T05:04:45;21.00;43.10
8188;DHT22;4135;49.184;9.722;2023-03-03T05:07:15;21.00;43.70
8188;DHT22;4135;49.184;9.722;2023-03-03T05:09:45;21.00;43.10
8188;DHT22;4135;49.184;9.722;2023-03-03T05:12:15;21.00;43.10
8188;DHT22;4135;49.184;9.722;2023-03-03T05:14:45;21.00;43.70
8188;DHT22;4135;49.184;9.722;2023-03-03T05:17:15;21.00;43.10
8188;DHT22;4135;49.184;9.722;2023-03-03T05:19:44;21.00;43.70
8188;DHT22;4135;49.184;9.722;2023-03-03T05:22:14;21.00;43.10
8188;DHT22;4135;49.184;9.722;2023-03-03T05:24:43;21.00;43.10
8188;DHT22;4135;49.184;9.722;2023-03-03T05:27:17;21.00;43.10
8188;DHT22;4135;49.184;9.722;2023-03-03T05:29:46;21.00;43.10
8188;DHT22;4135;49.184;9.722;2023-03-03T05:32:16;21.00;43.10
8188;DHT22;4135;49.184;9.722;2023-03-03T05:34:46;21.00;43.10
8188;DHT22;4135;49.184;9.722;2023-03-03T05:37:15;21.00;43.10
8188;DHT22;4135;49.184;9.722;2023-03-03T05:39:45;21.00;43.10
8188;DHT22;4135;49.184;9.722;2023-03-03T05:42:14;21.00;43.10
8188;DHT22;4135;49.184;9.722;2023-03-03T05:44:44;21.00;43.00
8188;DHT22;4135;49.184;9.722;2023-03-03T05:47:13;21.00;43.00
8188;DHT22;4135;49.184;9.722;2023-03-03T05:49:43;21.00;43.00
8188;DHT22;4135;49.184;9.722;2023-03-03T05:52:12;21.10;43.10
8188;DHT22;4135;49.184;9.722;2023-03-03T05:54:42;21.00;43.00
8188;DHT22;4135;49.184;9.722;2023-03-03T05:57:12;21.00;43.00
8188;DHT22;4135;49.184;9.722;2023-03-03T05:59:41;21.10;43.10
8188;DHT22;4135;49.184;9.722;2023-03-03T06:02:11;21.10;43.10
8188;DHT22;4135;49.184;9.722;2023-03-03T06:04:40;21.10;43.10
8188;DHT22;4135;49.184;9.722;2023-03-03T06:07:10;21.10;43.10
8188;DHT22;4135;49.184;9.722;2023-03-03T06:09:40;21.10;43.10
8188;DHT22;4135;49.184;9.722;2023-03-03T06:12:09;21.10;43.10
8188;DHT22;4135;49.184;9.722;2023-03-03T06:14:39;21.10;43.10
8188;DHT22;4135;49.184;9.722;2023-03-03T06:17:08;21.10;43.00
8188;DHT22;4135;49.184;9.722;2023-03-03T06:19:39;21.20;43.10
8188;DHT22;4135;49.184;9.722;2023-03-03T06:22:09;21.10;43.00
8188;DHT22;4135;49.184;9.722;2023-03-03T06:24:39;21.10;43.00
8188;DHT22;4135;49.184;9.722;2023-03-03T06:27:09;21.10;43.00
8188;DHT22;4135;49.184;9.722;2023-03-03T06:29:38;21.10;43.00
8188;DHT22;4135;49.184;9.722;2023-03-03T06:32:08;21.10;42.90
8188;DHT22;4135;49.184;9.722;2023-03-03T06:34:37;21.10;42.90
8188;DHT22;4135;49.184;9.722;2023-03-03T06:37:07;21.20;42.90
8188;DHT22;4135;49.184;9.722;2023-03-03T06:39:36;21.10;42.80
8188;DHT22;4135;49.184;9.722;2023-03-03T06:42:06;21.10;42.80
8188;DHT22;4135;49.184;9.722;2023-03-03T06:44:37;21.10;42.70
8188;DHT22;4135;49.184;9.722;2023-03-03T06:47:07;21.10;42.70
8188;DHT22;4135;49.184;9.722;2023-03-03T06:49:36;21.00;42.60
8188;DHT22;4135;49.184;9.722;2023-03-03T06:52:16;21.10;42.60
8188;DHT22;4135;49.184;9.722;2023-03-03T06:54:47;21.10;42.60
8188;DHT22;4135;49.184;9.722;2023-03-03T06:57:24;21.10;42.60
8188;DHT22;4135;49.184;9.722;2023-03-03T06:59:57;21.20;42.70
8188;DHT22;4135;49.184;9.722;2023-03-03T07:02:28;21.20;42.70
8188;DHT22;4135;49.184;9.722;2023-03-03T07:04:57;21.20;42.70
8188;DHT22;4135;49.184;9.722;2023-03-03T07:07:27;21.20;42.70
8188;DHT22;4135;49.184;9.722;2023-03-03T07:09:56;21.20;42.70
8188;DHT22;4135;49.184;9.722;2023-03-03T07:12:29;21.20;42.70
8188;DHT22;4135;49.184;9.722;2023-03-03T07:17:41;21.30;42.70
8188;DHT22;4135;49.184;9.722;2023-03-03T07:20:19;21.30;42.80
8188;DHT22;4135;49.184;9.722;2023-03-03T07:22:48;21.30;42.80
8188;DHT22;4135;49.184;9.722;2023-03-03T07:25:26;21.30;42.80
8188;DHT22;4135;49.184;9.722;2023-03-03T07:28:06;21.30;42.90
8188;DHT22;4135;49.184;9.722;2023-03-03T07:30:41;21.30;43.10
8188;DHT22;4135;49.184;9.722;2023-03-03T07:33:28;21.40;43.10
8188;DHT22;4135;49.184;9.722;2023-03-03T07:36:01;21.40;43.20
8188;DHT22;4135;49.184;9.722;2023-03-03T07:41:13;21.50;43.50
8188;DHT22;4135;49.184;9.722;2023-03-03T07:44:05;21.40;43.60
8188;DHT22;4135;49.184;9.722;2023-03-03T07:49:32;21.40;43.70
8188;DHT22;4135;49.184;9.722;2023-03-03T07:54:52;21.50;43.70
8188;DHT22;4135;49.184;9.722;2023-03-03T07:57:28;21.50;43.70
8188;DHT22;4135;49.184;9.722;2023-03-03T08:03:19;21.60;43.90
8188;DHT22;4135;49.184;9.722;2023-03-03T08:05:49;21.60;43.80
8188;DHT22;4135;49.184;9.722;2023-03-03T08:08:28;21.60;43.60
8188;DHT22;4135;49.184;9.722;2023-03-03T08:11:00;21.60;43.60
8188;DHT22;4135;49.184;9.722;2023-03-03T08:16:23;21.50;43.50
8188;DHT22;4135;49.184;9.722;2023-03-03T08:18:57;21.50;43.30
8188;DHT22;4135;49.184;9.722;2023-03-03T08:21:30;21.50;43.10
8188;DHT22;4135;49.184;9.722;2023-03-03T08:24:00;21.40;42.90
8188;DHT22;4135;49.184;9.722;2023-03-03T08:26:30;21.40;42.80
8188;DHT22;4135;49.184;9.722;2023-03-03T08:28:59;21.40;42.80
8188;DHT22;4135;49.184;9.722;2023-03-03T08:31:29;21.40;42.30
8188;DHT22;4135;49.184;9.722;2023-03-03T08:33:59;21.50;42.40
8188;DHT22;4135;49.184;9.722;2023-03-03T08:36:28;21.40;42.20
8188;DHT22;4135;49.184;9.722;2023-03-03T08:38:58;21.40;42.20
8188;DHT22;4135;49.184;9.722;2023-03-03T08:41:27;21.40;42.10
8188;DHT22;4135;49.184;9.722;2023-03-03T08:43:57;21.40;42.00
8188;DHT22;4135;49.184;9.722;2023-03-03T08:46:26;21.40;41.90
8188;DHT22;4135;49.184;9.722;2023-03-03T08:48:56;21.40;41.60
8188;DHT22;4135;49.184;9.722;2023-03-03T08:51:26;21.40;41.50
8188;DHT22;4135;49.184;9.722;2023-03-03T08:53:55;21.40;41.50
8188;DHT22;4135;49.184;9.722;2023-03-03T08:56:25;21.40;41.30
8188;DHT22;4135;49.184;9.722;2023-03-03T08:58:54;21.30;41.10
8188;DHT22;4135;49.184;9.722;2023-03-03T09:01:24;21.30;40.70
8188;DHT22;4135;49.184;9.722;2023-03-03T09:03:54;21.30;40.20
8188;DHT22;4135;49.184;9.722;2023-03-03T09:06:23;21.30;40.10
8188;DHT22;4135;49.184;9.722;2023-03-03T09:08:53;21.20;40.00
8188;DHT22;4135;49.184;9.722;2023-03-03T09:11:25;21.30;40.10
8188;DHT22;4135;49.184;9.722;2023-03-03T09:14:05;21.20;40.00
8188;DHT22;4135;49.184;9.722;2023-03-03T09:16:39;21.30;40.10
8188;DHT22;4135;49.184;9.722;2023-03-03T09:19:21;21.30;39.90
8188;DHT22;4135;49.184;9.722;2023-03-03T09:21:53;21.20;39.70
8188;DHT22;4135;49.184;9.722;2023-03-03T09:24:24;21.30;39.90
8188;DHT22;4135;49.184;9.722;2023-03-03T09:26:54;21.30;39.80
8188;DHT22;4135;49.184;9.722;2023-03-03T09:29:26;21.40;40.00
8188;DHT22;4135;49.184;9.722;2023-03-03T09:31:59;21.40;40.00
8188;DHT22;4135;49.184;9.722;2023-03-03T09:34:41;21.50;40.00
8188;DHT22;4135;49.184;9.722;2023-03-03T09:37:23;21.50;40.00
8188;DHT22;4135;49.184;9.722;2023-03-03T09:39:55;21.50;40.00
8188;DHT22;4135;49.184;9.722;2023-03-03T09:45:29;21.50;40.10
8188;DHT22;4135;49.184;9.722;2023-03-03T09:53:57;21.60;40.90
8188;DHT22;4135;49.184;9.722;2023-03-03T09:56:46;21.60;40.30
8188;DHT22;4135;49.184;9.722;2023-03-03T10:10:50;21.70;40.80
8188;DHT22;4135;49.184;9.722;2023-03-03T10:13:48;21.80;40.90
8188;DHT22;4135;49.184;9.722;2023-03-03T10:19:13;21.90;41.30
8188;DHT22;4135;49.184;9.722;2023-03-03T10:21:58;22.00;41.40
8188;DHT22;4135;49.184;9.722;2023-03-03T10:24:57;22.00;41.50
8188;DHT22;4135;49.184;9.722;2023-03-03T10:27:55;22.00;41.60
8188;DHT22;4135;49.184;9.722;2023-03-03T10:31:00;22.00;41.70
8188;DHT22;4135;49.184;9.722;2023-03-03T10:33:59;22.00;41.80
8188;DHT22;4135;49.184;9.722;2023-03-03T10:42:05;22.10;42.10
8188;DHT22;4135;49.184;9.722;2023-03-03T10:50:16;22.10;42.20
8188;DHT22;4135;49.184;9.722;2023-03-03T10:53:20;22.10;42.20
8188;DHT22;4135;49.184;9.722;2023-03-03T10:55:53;22.10;42.20
8188;DHT22;4135;49.184;9.722;2023-03-03T11:01:16;22.20;42.40
8188;DHT22;4135;49.184;9.722;2023-03-03T11:06:49;22.20;42.40
8188;DHT22;4135;49.184;9.722;2023-03-03T11:12:27;22.20;42.40
8188;DHT22;4135;49.184;9.722;2023-03-03T11:18:05;22.30;42.40
8188;DHT22;4135;49.184;9.722;2023-03-03T11:21:06;22.30;42.40
8188;DHT22;4135;49.184;9.722;2023-03-03T11:23:52;22.30;42.50
8188;DHT22;4135;49.184;9.722;2023-03-03T11:32:33;22.40;42.80
8188;DHT22;4135;49.184;9.722;2023-03-03T11:35:27;22.40;42.90
8188;DHT22;4135;49.184;9.722;2023-03-03T11:43:18;22.30;42.80
8188;DHT22;4135;49.184;9.722;2023-03-03T11:46:12;22.30;42.80
8188;DHT22;4135;49.184;9.722;2023-03-03T11:49:05;22.40;42.90
8188;DHT22;4135;49.184;9.722;2023-03-03T11:54:21;22.40;42.90
8188;DHT22;4135;49.184;9.722;2023-03-03T11:57:20;22.40;42.80
8188;DHT22;4135;49.184;9.722;2023-03-03T11:59:59;22.40;42.80
8188;DHT22;4135;49.184;9.722;2023-03-03T12:05:31;22.50;42.90
8188;DHT22;4135;49.184;9.722;2023-03-03T12:10:54;22.40;42.80
8188;DHT22;4135;49.184;9.722;2023-03-03T12:13:37;22.50;42.90
8188;DHT22;4135;49.184;9.722;2023-03-03T12:16:18;22.50;42.90
8188;DHT22;4135;49.184;9.722;2023-03-03T12:19:13;22.50;42.90
8188;DHT22;4135;49.184;9.722;2023-03-03T12:24:57;22.50;42.90
8188;DHT22;4135;49.184;9.722;2023-03-03T12:27:57;22.50;42.80
8188;DHT22;4135;49.184;9.722;2023-03-03T12:33:21;22.50;42.80
8188;DHT22;4135;49.184;9.722;2023-03-03T12:41:50;22.50;42.80
8188;DHT22;4135;49.184;9.722;2023-03-03T12:47:27;22.40;42.80
8188;DHT22;4135;49.184;9.722;2023-03-03T12:50:29;22.40;42.70
8188;DHT22;4135;49.184;9.722;2023-03-03T12:56:06;22.40;42.70
8188;DHT22;4135;49.184;9.722;2023-03-03T13:09:26;22.30;42.20
8188;DHT22;4135;49.184;9.722;2023-03-03T13:15:23;22.20;41.70
8188;DHT22;4135;49.184;9.722;2023-03-03T13:18:14;22.10;41.30
8188;DHT22;4135;49.184;9.722;2023-03-03T13:21:08;22.10;41.20
8188;DHT22;4135;49.184;9.722;2023-03-03T13:26:43;22.20;41.00
8188;DHT22;4135;49.184;9.722;2023-03-03T13:29:26;22.30;41.10
8188;DHT22;4135;49.184;9.722;2023-03-03T13:32:16;22.30;41.10
8188;DHT22;4135;49.184;9.722;2023-03-03T13:34:54;22.20;41.10
8188;DHT22;4135;49.184;9.722;2023-03-03T13:37:41;22.30;41.20
8188;DHT22;4135;49.184;9.722;2023-03-03T13:40:15;22.30;41.20
8188;DHT22;4135;49.184;9.722;2023-03-03T13:46:05;22.30;41.00
8188;DHT22;4135;49.184;9.722;2023-03-03T13:51:38;22.20;40.00
8188;DHT22;4135;49.184;9.722;2023-03-03T13:57:36;22.10;39.90
8188;DHT22;4135;49.184;9.722;2023-03-03T14:00:20;22.00;39.80
8188;DHT22;4135;49.184;9.722;2023-03-03T14:02:54;21.90;39.80
8188;DHT22;4135;49.184;9.722;2023-03-03T14:05:43;21.90;40.10
8188;DHT22;4135;49.184;9.722;2023-03-03T14:11:42;22.00;41.00
8188;DHT22;4135;49.184;9.722;2023-03-03T14:17:03;22.00;43.60
8188;DHT22;4135;49.184;9.722;2023-03-03T14:19:47;22.00;42.80
8188;DHT22;4135;49.184;9.722;2023-03-03T14:25:11;21.90;43.60
8188;DHT22;4135;49.184;9.722;2023-03-03T14:30:29;22.00;44.40
8188;DHT22;4135;49.184;9.722;2023-03-03T14:33:18;21.90;44.50
8188;DHT22;4135;49.184;9.722;2023-03-03T14:49:39;21.60;42.50
8188;DHT22;4135;49.184;9.722;2023-03-03T14:52:19;21.30;40.80
8188;DHT22;4135;49.184;9.722;2023-03-03T14:54:51;20.90;40.10
8188;DHT22;4135;49.184;9.722;2023-03-03T15:02:43;21.30;41.00
8188;DHT22;4135;49.184;9.722;2023-03-03T15:05:26;21.30;40.70
8188;DHT22;4135;49.184;9.722;2023-03-03T15:10:41;21.50;40.80
8188;DHT22;4135;49.184;9.722;2023-03-03T15:18:31;21.60;40.90
8188;DHT22;4135;49.184;9.722;2023-03-03T15:26:20;21.60;40.80
8188;DHT22;4135;49.184;9.722;2023-03-03T15:29:14;21.60;40.80
8188;DHT22;4135;49.184;9.722;2023-03-03T15:34:59;21.70;40.70
8188;DHT22;4135;49.184;9.722;2023-03-03T15:37:48;21.70;40.50
8188;DHT22;4135;49.184;9.722;2023-03-03T15:40:28;21.70;40.40
8188;DHT22;4135;49.184;9.722;2023-03-03T15:45:52;21.70;40.30
8188;DHT22;4135;49.184;9.722;2023-03-03T15:48:41;21.80;40.30
8188;DHT22;4135;49.184;9.722;2023-03-03T15:54:28;21.80;40.10
8188;DHT22;4135;49.184;9.722;2023-03-03T15:57:25;21.70;39.70
8188;DHT22;4135;49.184;9.722;2023-03-03T16:00:17;21.70;39.90
8188;DHT22;4135;49.184;9.722;2023-03-03T16:02:55;21.70;39.70
8188;DHT22;4135;49.184;9.722;2023-03-03T16:05:43;21.70;39.50
8188;DHT22;4135;49.184;9.722;2023-03-03T16:08:28;21.70;39.30
8188;DHT22;4135;49.184;9.722;2023-03-03T16:17:01;21.70;39.10
8188;DHT22;4135;49.184;9.722;2023-03-03T16:20:06;21.70;39.10
8188;DHT22;4135;49.184;9.722;2023-03-03T16:31:46;21.70;38.80
8188;DHT22;4135;49.184;9.722;2023-03-03T16:34:24;21.70;38.70
8188;DHT22;4135;49.184;9.722;2023-03-03T16:37:10;21.70;38.70
8188;DHT22;4135;49.184;9.722;2023-03-03T16:39:54;21.70;38.70
8188;DHT22;4135;49.184;9.722;2023-03-03T16:42:28;21.60;38.50
8188;DHT22;4135;49.184;9.722;2023-03-03T16:45:05;21.60;38.30
8188;DHT22;4135;49.184;9.722;2023-03-03T16:50:49;21.50;38.20
8188;DHT22;4135;49.184;9.722;2023-03-03T16:54:17;21.60;38.50
8188;DHT22;4135;49.184;9.722;2023-03-03T16:56:56;21.60;38.80
8188;DHT22;4135;49.184;9.722;2023-03-03T17:05:20;21.80;39.30
8188;DHT22;4135;49.184;9.722;2023-03-03T17:10:29;21.90;39.70
8188;DHT22;4135;49.184;9.722;2023-03-03T17:16:31;21.80;39.70
8188;DHT22;4135;49.184;9.722;2023-03-03T17:19:39;21.80;39.80
8188;DHT22;4135;49.184;9.722;2023-03-03T17:30:34;21.70;40.00
8188;DHT22;4135;49.184;9.722;2023-03-03T17:36:22;21.70;40.00
8188;DHT22;4135;49.184;9.722;2023-03-03T17:45:03;21.70;40.10
8188;DHT22;4135;49.184;9.722;2023-03-03T17:50:38;21.70;40.10
8188;DHT22;4135;49.184;9.722;2023-03-03T17:53:35;21.60;40.10
8188;DHT22;4135;49.184;9.722;2023-03-03T17:56:26;21.60;40.00
8188;DHT22;4135;49.184;9.722;2023-03-03T17:59:29;21.70;40.10
8188;DHT22;4135;49.184;9.722;2023-03-03T18:08:03;21.80;40.30
8188;DHT22;4135;49.184;9.722;2023-03-03T18:19:50;22.70;40.10
8188;DHT22;4135;49.184;9.722;2023-03-03T18:25:10;22.90;40.50
8188;DHT22;4135;49.184;9.722;2023-03-03T18:27:44;23.00;41.10
8188;DHT22;4135;49.184;9.722;2023-03-03T18:35:30;23.30;40.50
8188;DHT22;4135;49.184;9.722;2023-03-03T18:49:09;23.60;41.10
8188;DHT22;4135;49.184;9.722;2023-03-03T18:56:49;23.60;41.20
8188;DHT22;4135;49.184;9.722;2023-03-03T19:04:54;23.70;41.30
8188;DHT22;4135;49.184;9.722;2023-03-03T19:12:55;24.00;41.50
8188;DHT22;4135;49.184;9.722;2023-03-03T19:18:02;24.10;41.60
8188;DHT22;4135;49.184;9.722;2023-03-03T19:20:52;24.10;41.50
8188;DHT22;4135;49.184;9.722;2023-03-03T19:26:44;24.20;41.60
8188;DHT22;4135;49.184;9.722;2023-03-03T19:29:43;24.20;41.60
8188;DHT22;4135;49.184;9.722;2023-03-03T19:32:51;24.30;41.70
8188;DHT22;4135;49.184;9.722;2023-03-03T19:38:56;24.30;41.70
8188;DHT22;4135;49.184;9.722;2023-03-03T19:41:37;24.40;41.90
8188;DHT22;4135;49.184;9.722;2023-03-03T19:44:33;24.40;41.90
8188;DHT22;4135;49.184;9.722;2023-03-03T19:47:31;24.40;42.00
8188;DHT22;4135;49.184;9.722;2023-03-03T19:53:33;24.40;42.00
8188;DHT22;4135;49.184;9.722;2023-03-03T19:56:31;24.40;42.10
8188;DHT22;4135;49.184;9.722;2023-03-03T19:59:20;24.40;42.10
8188;DHT22;4135;49.184;9.722;2023-03-03T20:02:30;24.40;42.00
8188;DHT22;4135;49.184;9.722;2023-03-03T20:05:27;24.50;42.00
8188;DHT22;4135;49.184;9.722;2023-03-03T20:08:13;24.60;42.00
8188;DHT22;4135;49.184;9.722;2023-03-03T20:11:09;24.60;41.90
8188;DHT22;4135;49.184;9.722;2023-03-03T20:14:07;24.70;42.10
8188;DHT22;4135;49.184;9.722;2023-03-03T20:16:43;24.70;42.10
8188;DHT22;4135;49.184;9.722;2023-03-03T20:19:23;24.70;42.00
8188;DHT22;4135;49.184;9.722;2023-03-03T20:22:34;24.70;42.10
8188;DHT22;4135;49.184;9.722;2023-03-03T20:25:20;24.70;42.00
8188;DHT22;4135;49.184;9.722;2023-03-03T20:31:11;24.70;42.10
8188;DHT22;4135;49.184;9.722;2023-03-03T20:36:51;24.70;42.10
8188;DHT22;4135;49.184;9.722;2023-03-03T20:39:56;24.70;42.10
8188;DHT22;4135;49.184;9.722;2023-03-03T20:42:47;24.70;42.20
8188;DHT22;4135;49.184;9.722;2023-03-03T20:48:16;24.60;42.20
8188;DHT22;4135;49.184;9.722;2023-03-03T20:54:16;24.60;42.20
8188;DHT22;4135;49.184;9.722;2023-03-03T20:59:42;24.50;42.30
8188;DHT22;4135;49.184;9.722;2023-03-03T21:05:15;24.50;42.30
8188;DHT22;4135;49.184;9.722;2023-03-03T21:08:00;24.40;42.20
8188;DHT22;4135;49.184;9.722;2023-03-03T21:10:32;25.50;43.00
8188;DHT22;4135;49.184;9.722;2023-03-03T21:16:32;24.40;42.00
8188;DHT22;4135;49.184;9.722;2023-03-03T21:21:38;24.20;41.90
8188;DHT22;4135;49.184;9.722;2023-03-03T21:24:10;24.10;41.80
8188;DHT22;4135;49.184;9.722;2023-03-03T21:26:44;24.20;42.10
8188;DHT22;4135;49.184;9.722;2023-03-03T21:29:19;24.10;42.00
8188;DHT22;4135;49.184;9.722;2023-03-03T21:31:51;24.10;42.10
8188;DHT22;4135;49.184;9.722;2023-03-03T21:34:27;24.10;42.10
8188;DHT22;4135;49.184;9.722;2023-03-03T21:37:01;24.00;42.10
8188;DHT22;4135;49.184;9.722;2023-03-03T21:39:42;24.00;42.10
8188;DHT22;4135;49.184;9.722;2023-03-03T21:42:16;23.90;42.00
8188;DHT22;4135;49.184;9.722;2023-03-03T21:44:49;23.80;41.80
8188;DHT22;4135;49.184;9.722;2023-03-03T21:47:21;23.80;41.50
8188;DHT22;4135;49.184;9.722;2023-03-03T21:49:51;23.70;41.50
8188;DHT22;4135;49.184;9.722;2023-03-03T21:52:21;23.60;41.50
8188;DHT22;4135;49.184;9.722;2023-03-03T21:54:51;23.60;41.60
8188;DHT22;4135;49.184;9.722;2023-03-03T21:57:20;23.60;41.70
8188;DHT22;4135;49.184;9.722;2023-03-03T21:59:50;23.50;41.70
8188;DHT22;4135;49.184;9.722;2023-03-03T22:02:20;23.50;41.70
8188;DHT22;4135;49.184;9.722;2023-03-03T22:04:49;23.50;41.70
8188;DHT22;4135;49.184;9.722;2023-03-03T22:07:19;23.50;41.70
8188;DHT22;4135;49.184;9.722;2023-03-03T22:09:48;23.40;41.70
8188;DHT22;4135;49.184;9.722;2023-03-03T22:12:18;23.40;41.80
8188;DHT22;4135;49.184;9.722;2023-03-03T22:14:47;23.40;41.80
8188;DHT22;4135;49.184;9.722;2023-03-03T22:17:17;23.30;41.70
8188;DHT22;4135;49.184;9.722;2023-03-03T22:19:47;23.50;41.90
8188;DHT22;4135;49.184;9.722;2023-03-03T22:22:16;23.30;41.80
8188;DHT22;4135;49.184;9.722;2023-03-03T22:24:46;23.20;41.70
8188;DHT22;4135;49.184;9.722;2023-03-03T22:27:15;23.20;41.80
8188;DHT22;4135;49.184;9.722;2023-03-03T22:29:45;23.20;41.80
8188;DHT22;4135;49.184;9.722;2023-03-03T22:32:14;23.20;41.80